Sheldons Grove, Illinois
Current Conditions -  °F | °C
As of 2:15 PM on Thursday 23 Oct 2014 (Local Time) from KIJX Reporting Station
Clear Clear  
Wind Chill: 63°   Ceiling: Unl
Heat Index: 63°   Visibility: 10mi
Dew Point: 45°   Wind: 10mph
Humidity: 51%   Direction: 170°S
Pressure: 30.12"   Gusts: NA
Location:  40.1574°N, 90.35°W
Report Text: KIJX 231915Z AUTO 17009KT 10SM CLR 17/07 A3012 RMK AO2 T01720070
Loading
Personal Weather Stations






























Interactive Weather Map
Tropical Storm Tracking
New forecast layout! Learn more

10-Day Weather Forecast

Advertisements
Track Severe Weather on mobile